createdAt,value
2023-09-06T00:01:11.018Z,20.93
2023-09-06T00:21:10.987Z,20.81
2023-09-06T00:41:10.993Z,21.06
2023-09-06T01:01:10.938Z,20.93
2023-09-06T01:21:10.908Z,20.81
2023-09-06T01:41:10.881Z,20.68
2023-09-06T02:01:10.861Z,21.06
2023-09-06T02:21:10.814Z,20.93
2023-09-06T02:41:10.791Z,20.87
2023-09-06T03:01:10.765Z,20.68
2023-09-06T03:21:10.743Z,21.00
2023-09-06T03:41:10.716Z,21.12
2023-09-06T04:01:10.674Z,21.00
2023-09-06T04:21:10.788Z,20.75
2023-09-06T04:41:10.627Z,20.87
2023-09-06T05:01:10.606Z,20.81
2023-09-06T05:21:10.581Z,20.81
2023-09-06T05:41:10.554Z,20.81
2023-09-06T06:01:10.592Z,20.81
2023-09-06T06:21:10.565Z,20.93
2023-09-06T06:41:10.482Z,20.81
2023-09-06T07:01:10.433Z,20.81
2023-09-06T07:21:10.419Z,20.81
2023-09-06T07:41:10.386Z,20.93
2023-09-06T08:01:10.364Z,20.93
2023-09-06T08:21:10.343Z,20.87
2023-09-06T08:41:10.310Z,21.12
2023-09-06T09:01:10.279Z,21.06
2023-09-06T09:21:10.252Z,21.25
2023-09-06T09:41:10.223Z,21.18
2023-09-06T10:01:10.272Z,21.25
2023-09-06T10:21:10.167Z,21.25
2023-09-06T10:41:10.131Z,21.62
2023-09-06T11:01:10.092Z,21.62
2023-09-06T11:21:10.060Z,21.25
2023-09-06T11:41:10.024Z,21.50
2023-09-06T12:01:10.007Z,21.50
2023-09-06T12:21:10.181Z,21.56
2023-09-06T12:41:09.920Z,21.62
2023-09-06T13:01:10.057Z,21.93
2023-09-06T13:21:09.862Z,22.00
2023-09-06T13:41:10.091Z,21.87
2023-09-06T14:01:09.807Z,21.81
2023-09-06T14:21:09.785Z,22.00
2023-09-06T14:41:09.734Z,21.68
2023-09-06T15:01:09.791Z,21.93
2023-09-06T15:21:09.728Z,21.81
2023-09-06T15:41:09.645Z,21.81
2023-09-06T16:01:09.601Z,21.81
2023-09-06T16:21:09.596Z,21.43
2023-09-06T16:41:09.559Z,21.50
2023-09-06T17:01:09.506Z,21.56
2023-09-06T17:21:09.483Z,21.50
2023-09-06T17:41:09.453Z,21.62
2023-09-06T18:01:09.420Z,21.43
2023-09-06T18:21:09.400Z,21.31
2023-09-06T18:41:09.374Z,21.31
2023-09-06T19:01:09.322Z,21.43
2023-09-06T19:21:09.313Z,21.50
2023-09-06T19:41:09.276Z,21.25
2023-09-06T20:01:09.243Z,21.25
2023-09-06T20:21:09.221Z,21.50
2023-09-06T20:41:09.193Z,21.31
2023-09-06T21:01:09.163Z,21.43
2023-09-06T21:21:09.115Z,21.31
2023-09-06T21:41:09.117Z,21.37
2023-09-06T22:01:09.054Z,21.75
2023-09-06T22:21:09.040Z,21.31
2023-09-06T22:41:09.012Z,21.18
2023-09-06T23:01:08.977Z,21.12
2023-09-06T23:21:08.940Z,21.31
2023-09-06T23:41:08.942Z,21.06
